WetterOnline ( https://www.wetteronline.de )

Wetter aktuell Trier

Aktuelles Wetter: Trier/Petrisberg (273m)

6-stündlich | Neueste Meldungen
Ortszeit Temperatur Wetter
Mi, 18.05. 20:00 27.0° C leicht bewölkt
Mi, 18.05. 14:00 27.9° C leicht bewölkt
Mi, 18.05. 8:00 14.8° C leicht bewölkt
Mi, 18.05. 2:00 16.7° C wolkenlos
Di, 17.05. 20:00 23.6° C bewölkt
Di, 17.05. 14:00 24.7° C leicht bewölkt
Di, 17.05. 8:00 13.1° C bewölkt
Di, 17.05. 2:00 13.7° C wolkig
Ortszeit Temperatur Wetter
Do, 19.05. 1:30 21.2° C wolkig
Do, 19.05. 1:20 21.2° C wolkig
Do, 19.05. 1:10 21.2° C bedeckt
Do, 19.05. 1:00 21.2° C wolkig
Do, 19.05. 0:50 21.2° C wolkig
Do, 19.05. 0:40 21.5° C bedeckt
Do, 19.05. 0:30 21.5° C wolkig
Do, 19.05. 0:00 21.8° C wolkig
Mi, 18.05. 23:30 20.8° C wolkig
Mi, 18.05. 23:00 22.0° C wolkig
Mi, 18.05. 22:30 21.4° C wolkig
Ortszeit Relative Feuchte Sichtweite
Mi, 18.05. 20:00 37% 50 km
Mi, 18.05. 14:00 29% >70 km
Mi, 18.05. 8:00 80% 40 km
Mi, 18.05. 2:00 70% 55 km
Di, 17.05. 20:00 49% 55 km
Di, 17.05. 14:00 44% 50 km
Di, 17.05. 8:00 90% 23 km
Di, 17.05. 2:00 87% 30 km
Ortszeit Relative Feuchte Sichtweite
Do, 19.05. 1:30 51% 55 km
Do, 19.05. 1:20 51% -
Do, 19.05. 1:10 51% -
Do, 19.05. 1:00 50% 60 km
Do, 19.05. 0:50 50% -
Do, 19.05. 0:40 50% -
Do, 19.05. 0:30 49% 50 km
Do, 19.05. 0:00 48% 50 km
Mi, 18.05. 23:30 53% 55 km
Mi, 18.05. 23:00 50% 45 km
Mi, 18.05. 22:30 55% 45 km
Ortszeit Niederschlagsmenge Niederschlagsart
Mi, 18.05. 20:00 0.0 l/m2 in 12 Std. -
Mi, 18.05. 14:00 0.0 l/m2 in 6 Std. -
Mi, 18.05. 8:00 0.0 l/m2 in 12 Std. -
Mi, 18.05. 2:00 0.0 l/m2 in 6 Std. -
Di, 17.05. 20:00 0.0 l/m2 in 12 Std. -
Di, 17.05. 14:00 0.0 l/m2 in 6 Std. -
Di, 17.05. 8:00 0.0 l/m2 in 12 Std. -
Di, 17.05. 2:00 0.0 l/m2 in 6 Std. -
Ortszeit Niederschlagsmenge Niederschlagsart
Do, 19.05. 1:30 0.0 l/m2 in 1 Std. -
Do, 19.05. 1:20 keine Meldung -
Do, 19.05. 1:10 keine Meldung -
Do, 19.05. 1:00 0.0 l/m2 in 1 Std. -
Do, 19.05. 0:50 keine Meldung -
Do, 19.05. 0:40 keine Meldung -
Do, 19.05. 0:30 0.0 l/m2 in 1 Std. -
Do, 19.05. 0:00 0.0 l/m2 in 1 Std. -
Mi, 18.05. 23:30 0.0 l/m2 in 1 Std. -
Mi, 18.05. 23:00 0.0 l/m2 in 1 Std. -
Mi, 18.05. 22:30 0.0 l/m2 in 1 Std. -
Ortszeit Stärke Spitze Richtung
km/h Bft. km/h Grad Sektor
Mi, 18.05. 20:00 9 2 28 160° S
Mi, 18.05. 14:00 9 2 17 210° SW
Mi, 18.05. 8:00 4 1 14 50° NO
Mi, 18.05. 2:00 0 0 18 - -
Di, 17.05. 20:00 9 2 20 150° SO
Di, 17.05. 14:00 6 1 17 80° O
Di, 17.05. 8:00 4 1 11 50° NO
Di, 17.05. 2:00 4 1 22 260° W
Ortszeit Stärke Spitze Richtung
km/h Bft. km/h Grad Sektor
Do, 19.05. 1:30 7 2 14 30° NO
Do, 19.05. 1:20 7 2 - 30° NO
Do, 19.05. 1:10 9 2 - 20° N
Do, 19.05. 1:00 7 2 11 30° NO
Do, 19.05. 0:50 7 2 - 30° NO
Do, 19.05. 0:40 7 2 - 40° NO
Do, 19.05. 0:30 7 2 11 40° NO
Do, 19.05. 0:00 7 2 18 80° O
Mi, 18.05. 23:30 9 2 19 140° SO
Mi, 18.05. 23:00 13 3 20 130° SO
Mi, 18.05. 22:30 9 2 19 130° SO
Ortszeit Untergrenze Bedeckung Gattung
total tief tief mittel hoch
Mi, 18.05. 20:00 8700 m 8/8 0/8 - - -
Mi, 18.05. 14:00 10500 m 3/8 0/8 - - -
Mi, 18.05. 8:00 8100 m 8/8 0/8 - - -
Mi, 18.05. 2:00 - 0/8 0/8 - - -
Di, 17.05. 20:00 2100 m 7/8 7/8 - - -
Di, 17.05. 14:00 1350 m 8/8 1/8 - - -
Di, 17.05. 8:00 3900 m 8/8 7/8 - - -
Di, 17.05. 2:00 7800 m 7/8 0/8 - - -
Ortszeit Bedeckungsgrad in Achtel und Wolkenuntergrenze
Do, 19.05. 1:30 3(9000m) 8(10500m) 8(10500m)
Do, 19.05. 1:20 3(9000m) 8(10500m) 8(10500m)
Do, 19.05. 1:10 8
Do, 19.05. 1:00 4(8400m) 7(10500m) 8(10500m)
Do, 19.05. 0:50 4(8400m) 7(10500m) 8(10500m)
Do, 19.05. 0:40 8
Do, 19.05. 0:30 5(8400m) 8(9000m)
Do, 19.05. 0:00 5(8100m) 8(10500m) 8(12000m)
Mi, 18.05. 23:30 7(8100m) 8(9000m) 8(10500m)
Mi, 18.05. 23:00 6(8400m) 7(9000m) 8(9000m)
Mi, 18.05. 22:30 2(8100m) 8(8700m) 8(9000m)
Ortszeit Luftdruck NN (hPa) Tendenz (hPa in 3 Std.)
Mi, 18.05. 20:00 1018 - 0,5
Mi, 18.05. 14:00 1020 - 1,0
Mi, 18.05. 8:00 1022 + 0,9
Mi, 18.05. 2:00 1021 + 0,7
Di, 17.05. 20:00 1019 - 0,4
Di, 17.05. 14:00 1020 - 1,5
Di, 17.05. 8:00 1022 + 1,0
Di, 17.05. 2:00 1022 + 0,6
Ortszeit Luftdruck NN (hPa) Tendenz (hPa in 3 Std.)
Do, 19.05. 1:30 1019 - 0,3
Do, 19.05. 1:20 1019 keine Meldung
Do, 19.05. 1:10 1019 keine Meldung
Do, 19.05. 1:00 1019 - 0,2
Do, 19.05. 0:50 1019 keine Meldung
Do, 19.05. 0:40 1019 keine Meldung
Do, 19.05. 0:30 1019 0,0
Do, 19.05. 0:00 1019 + 0,3
Mi, 18.05. 23:30 1019 + 0,2
Mi, 18.05. 23:00 1019 + 0,2
Mi, 18.05. 22:30 1019 0,0
Ortszeit Schneehöhe (cm)
Mi, 18.05. 20:00 0
Mi, 18.05. 14:00 0
Mi, 18.05. 8:00 0
Mi, 18.05. 2:00 0
Di, 17.05. 20:00 0
Di, 17.05. 14:00 0
Di, 17.05. 8:00 0
Di, 17.05. 2:00 0
Ortszeit Schneehöhe (cm)
Do, 19.05. 1:30 0
Do, 19.05. 1:20 0
Do, 19.05. 1:10 0
Do, 19.05. 1:00 0
Do, 19.05. 0:50 0
Do, 19.05. 0:40 0
Do, 19.05. 0:30 0
Do, 19.05. 0:00 0
Mi, 18.05. 23:30 0
Mi, 18.05. 23:00 0
Mi, 18.05. 22:30 0
Link zu dieser Seite / Seite empfehlen

Das Wetter in ...